Ashland, Kentucky
Current Conditions -  °F | °C
As of 1:15 AM on Saturday 01 Nov 2014 (Local Time) from KDWU Reporting Station
Overcast Overcast  
Wind Chill: 35°   Ceiling: 1300
Heat Index: 39°   Visibility: 9mi
Dew Point: 36°   Wind: 6mph
Humidity: 87%   Direction: 320°NW
Pressure: 29.89"   Gusts: NA
Location:  38.48°N, 82.64°W
Report Text: KDWU 010515Z AUTO 32005KT 9SM OVC013 04/02 A2989 RMK AO1
Loading
Personal Weather Stations






























Interactive Weather Map
Tropical Storm Tracking
New forecast layout! Learn more

10-Day Weather Forecast

Advertisements
Track Severe Weather on mobile